createdAt,value
2019-01-02T00:02:19.367Z,62.40
2019-01-02T00:04:47.855Z,61.70
2019-01-02T00:07:16.659Z,61.70
2019-01-02T00:09:45.445Z,61.80
2019-01-02T00:12:14.387Z,61.40
2019-01-02T00:15:02.171Z,61.30
2019-01-02T00:17:30.669Z,60.30
2019-01-02T00:19:59.489Z,60.80
2019-01-02T00:22:27.921Z,61.20
2019-01-02T00:24:56.837Z,61.00
2019-01-02T00:27:26.283Z,60.50
2019-01-02T00:29:55.590Z,61.20
2019-01-02T00:32:24.107Z,60.30
2019-01-02T00:34:52.607Z,61.20
2019-01-02T00:37:21.113Z,60.60
2019-01-02T00:39:49.660Z,60.50
2019-01-02T00:42:18.099Z,61.00
2019-01-02T00:44:46.622Z,60.30
2019-01-02T00:47:15.088Z,60.00
2019-01-02T00:49:43.622Z,60.00
2019-01-02T00:52:12.318Z,60.40
2019-01-02T00:54:40.766Z,60.00
2019-01-02T00:57:09.573Z,60.40
2019-01-02T00:59:38.089Z,60.10
2019-01-02T01:02:06.522Z,59.90
2019-01-02T01:04:35.043Z,59.80
2019-01-02T01:07:03.486Z,59.80
2019-01-02T01:09:32.222Z,60.00
2019-01-02T01:12:00.671Z,60.00
2019-01-02T01:14:29.242Z,59.80
2019-01-02T01:16:57.782Z,59.60
2019-01-02T01:19:26.207Z,59.60
2019-01-02T01:21:54.650Z,59.70
2019-01-02T01:24:23.083Z,59.70
2019-01-02T01:26:51.922Z,59.60
2019-01-02T01:29:20.370Z,59.60
2019-01-02T01:31:49.193Z,60.10
2019-01-02T01:34:17.737Z,60.00
2019-01-02T01:36:46.213Z,60.20
2019-01-02T01:39:15.220Z,59.80
2019-01-02T01:41:43.742Z,59.50
2019-01-02T01:44:12.264Z,60.00
2019-01-02T01:46:40.787Z,60.60
2019-01-02T01:49:09.218Z,59.70
2019-01-02T01:51:38.202Z,59.30
2019-01-02T01:54:06.704Z,59.60
2019-01-02T01:56:35.226Z,59.60
2019-01-02T01:59:03.715Z,59.40
2019-01-02T02:01:34.262Z,59.00
2019-01-02T02:04:03.070Z,59.00
2019-01-02T02:06:31.674Z,58.70
2019-01-02T02:09:00.157Z,58.70
2019-01-02T02:11:29.083Z,58.80
2019-01-02T02:13:57.499Z,58.50
2019-01-02T02:16:26.308Z,58.90
2019-01-02T02:18:54.731Z,58.50
2019-01-02T02:21:23.184Z,58.70
2019-01-02T02:23:52.110Z,58.70
2019-01-02T02:26:20.726Z,58.70
2019-01-02T02:28:49.634Z,59.00
2019-01-02T02:31:18.226Z,58.60
2019-01-02T02:33:47.196Z,58.20
2019-01-02T02:36:15.990Z,58.60
2019-01-02T02:38:44.719Z,58.20
2019-01-02T02:41:13.422Z,58.60
2019-01-02T02:43:42.591Z,58.70
2019-01-02T02:46:11.035Z,57.90
2019-01-02T02:48:39.483Z,57.80
2019-01-02T02:51:08.278Z,58.10
2019-01-02T02:53:37.230Z,57.70
2019-01-02T02:56:06.014Z,58.00
2019-01-02T02:58:35.027Z,57.50
2019-01-02T03:01:03.922Z,58.40
2019-01-02T03:03:32.822Z,58.10
2019-01-02T03:06:01.277Z,57.60
2019-01-02T03:08:29.799Z,57.80
2019-01-02T03:10:58.700Z,58.10
2019-01-02T03:13:27.523Z,58.00
2019-01-02T03:15:56.622Z,57.40
2019-01-02T03:18:25.454Z,58.00
2019-01-02T03:20:54.238Z,57.70
2019-01-02T03:23:22.791Z,57.30
2019-01-02T03:25:51.240Z,57.30
2019-01-02T03:28:20.065Z,57.50
2019-01-02T03:30:48.779Z,57.40
2019-01-02T03:33:17.606Z,57.40
2019-01-02T03:35:46.055Z,57.30
2019-01-02T03:38:14.691Z,58.00
2019-01-02T03:40:43.138Z,57.20
2019-01-02T03:43:11.594Z,57.10
2019-01-02T03:45:40.354Z,57.10
2019-01-02T03:48:08.887Z,57.00
2019-01-02T03:50:37.405Z,57.00
2019-01-02T03:53:05.921Z,57.00
2019-01-02T03:55:34.370Z,57.50
2019-01-02T03:58:02.868Z,56.90
2019-01-02T04:00:31.316Z,56.90
2019-01-02T04:02:59.748Z,57.00
2019-01-02T04:05:28.192Z,57.30
2019-01-02T04:07:59.735Z,56.80
2019-01-02T04:10:28.220Z,57.40
2019-01-02T04:12:56.698Z,56.90
2019-01-02T04:15:25.408Z,57.00
2019-01-02T04:17:53.854Z,57.30
2019-01-02T04:20:22.382Z,57.00
2019-01-02T04:22:50.832Z,57.00
2019-01-02T04:25:19.286Z,56.80
2019-01-02T04:27:47.832Z,56.80
2019-01-02T04:30:16.285Z,56.80
2019-01-02T04:32:46.177Z,56.80
2019-01-02T04:35:14.619Z,56.80
2019-01-02T04:37:43.047Z,57.00
2019-01-02T04:40:13.024Z,57.00
2019-01-02T04:42:41.612Z,57.40
2019-01-02T04:45:11.184Z,57.00
2019-01-02T04:47:39.970Z,57.00
2019-01-02T04:50:13.786Z,57.20
2019-01-02T04:52:42.231Z,56.80
2019-01-02T04:55:10.654Z,56.90
2019-01-02T04:57:39.107Z,56.90
2019-01-02T05:00:10.650Z,56.90
2019-01-02T05:02:39.163Z,56.80
2019-01-02T05:05:07.844Z,57.40
2019-01-02T05:07:36.319Z,57.30
2019-01-02T05:10:07.895Z,56.70
2019-01-02T05:12:36.387Z,57.00
2019-01-02T05:15:07.255Z,56.60
2019-01-02T05:17:35.703Z,57.20
2019-01-02T05:20:06.543Z,56.90
2019-01-02T05:22:35.010Z,57.30
2019-01-02T05:25:03.707Z,57.00
2019-01-02T05:27:32.166Z,56.60
2019-01-02T05:30:00.594Z,56.90
2019-01-02T05:32:29.035Z,56.60
2019-01-02T05:34:57.466Z,56.60
2019-01-02T05:37:26.217Z,57.10
2019-01-02T05:39:54.643Z,56.50
2019-01-02T05:42:23.096Z,57.10
2019-01-02T05:44:51.591Z,56.80
2019-01-02T05:47:20.134Z,57.00
2019-01-02T05:49:48.571Z,56.60
2019-01-02T05:52:17.033Z,56.60
2019-01-02T05:54:45.470Z,56.90
2019-01-02T05:57:14.278Z,56.60
2019-01-02T05:59:42.782Z,56.80
2019-01-02T06:02:11.222Z,57.00
2019-01-02T06:04:39.647Z,56.90
2019-01-02T06:07:08.087Z,56.60
2019-01-02T06:09:36.532Z,57.20
2019-01-02T06:12:05.084Z,56.50
2019-01-02T06:14:33.513Z,56.90
2019-01-02T06:17:01.966Z,56.80
2019-01-02T06:19:30.392Z,56.80
2019-01-02T06:21:58.842Z,56.90
2019-01-02T06:24:27.440Z,56.70
2019-01-02T06:26:56.022Z,56.40
2019-01-02T06:29:24.683Z,56.90
2019-01-02T06:31:53.177Z,56.70
2019-01-02T06:34:21.700Z,56.70
2019-01-02T06:36:50.139Z,56.20
2019-01-02T06:39:18.633Z,56.70
2019-01-02T06:41:47.079Z,57.00
2019-01-02T06:44:15.581Z,56.30
2019-01-02T06:46:44.285Z,56.70
2019-01-02T06:49:12.738Z,56.10
2019-01-02T06:51:41.472Z,56.60
2019-01-02T06:54:09.929Z,56.00
2019-01-02T06:56:38.361Z,56.60
2019-01-02T06:59:06.820Z,55.90
2019-01-02T07:01:35.386Z,56.30
2019-01-02T07:04:03.947Z,55.90
2019-01-02T07:06:32.381Z,56.40
2019-01-02T07:09:00.894Z,56.50
2019-01-02T07:11:29.331Z,56.20
2019-01-02T07:13:57.782Z,56.50
2019-01-02T07:16:26.223Z,56.00
2019-01-02T07:18:54.741Z,56.20
2019-01-02T07:21:23.258Z,55.90
2019-01-02T07:23:51.777Z,56.40
2019-01-02T07:26:20.608Z,56.50
2019-01-02T07:28:49.047Z,56.00
2019-01-02T07:31:17.503Z,56.60
2019-01-02T07:33:49.027Z,56.80
2019-01-02T07:36:40.459Z,56.30
2019-01-02T07:39:14.915Z,56.30
2019-01-02T07:42:01.404Z,56.70
2019-01-02T07:44:45.034Z,57.30
2019-01-02T07:47:39.120Z,56.50
2019-01-02T07:50:27.326Z,57.20
2019-01-02T07:53:01.402Z,57.40
2019-01-02T07:55:41.688Z,57.50
2019-01-02T07:58:13.196Z,57.40
2019-01-02T08:01:12.030Z,57.40
2019-01-02T08:03:52.230Z,57.10
2019-01-02T08:06:52.907Z,56.90
2019-01-02T08:09:42.286Z,57.30
2019-01-02T08:12:33.733Z,56.20
2019-01-02T08:15:08.233Z,57.00
2019-01-02T08:17:42.386Z,57.40
2019-01-02T08:20:33.810Z,56.80
2019-01-02T08:23:08.008Z,57.30
2019-01-02T08:25:48.312Z,56.70
2019-01-02T08:28:52.927Z,56.50
2019-01-02T08:31:33.543Z,56.40
2019-01-02T08:34:13.382Z,57.00
2019-01-02T08:37:06.096Z,56.50
2019-01-02T08:39:37.603Z,56.50
2019-01-02T08:42:12.803Z,57.10
2019-01-02T08:44:53.358Z,57.10
2019-01-02T08:47:49.132Z,56.30
2019-01-02T08:50:23.492Z,56.30
2019-01-02T08:52:54.998Z,56.40
2019-01-02T08:55:35.423Z,56.40
2019-01-02T08:58:19.002Z,56.50
2019-01-02T09:00:59.551Z,56.50
2019-01-02T09:03:39.859Z,57.00
2019-01-02T09:06:14.198Z,56.60
2019-01-02T09:08:57.635Z,56.70
2019-01-02T09:12:02.255Z,57.00
2019-01-02T09:14:45.715Z,56.80
2019-01-02T09:17:35.500Z,56.80
2019-01-02T09:20:15.654Z,57.00
2019-01-02T09:23:10.778Z,56.90
2019-01-02T09:25:51.711Z,56.20
2019-01-02T09:28:35.022Z,56.50
2019-01-02T09:31:15.051Z,56.50
2019-01-02T09:34:01.575Z,56.00
2019-01-02T09:37:06.238Z,56.00
2019-01-02T09:39:43.629Z,56.40
2019-01-02T09:42:48.746Z,55.80
2019-01-02T09:45:23.274Z,55.50
2019-01-02T09:48:00.750Z,55.60
2019-01-02T09:50:38.182Z,55.10
2019-01-02T09:53:24.905Z,55.10
2019-01-02T09:56:08.188Z,55.70
2019-01-02T09:58:45.981Z,55.80
2019-01-02T10:01:17.519Z,55.60
2019-01-02T10:03:57.415Z,55.60
2019-01-02T10:06:37.779Z,55.40
2019-01-02T10:09:34.759Z,55.40
2019-01-02T10:12:13.141Z,55.00
2019-01-02T10:14:53.422Z,55.10
2019-01-02T10:17:25.034Z,54.90
2019-01-02T10:20:14.826Z,54.10
2019-01-02T10:23:07.702Z,54.50
2019-01-02T10:25:55.639Z,54.50
2019-01-02T10:28:44.986Z,54.30
2019-01-02T10:31:19.114Z,53.80
2019-01-02T10:34:10.332Z,54.40
2019-01-02T10:37:03.080Z,53.60
2019-01-02T10:39:43.443Z,53.80
2019-01-02T10:42:20.806Z,53.80
2019-01-02T10:45:16.274Z,53.70
2019-01-02T10:47:53.463Z,54.00
2019-01-02T10:50:25.000Z,54.30
2019-01-02T10:53:08.412Z,54.10
2019-01-02T10:55:55.479Z,54.20
2019-01-02T10:58:41.947Z,54.40
2019-01-02T11:01:16.010Z,54.40
2019-01-02T11:04:02.739Z,54.70
2019-01-02T11:06:42.758Z,53.70
2019-01-02T11:09:43.118Z,54.20
2019-01-02T11:12:23.457Z,54.00
2019-01-02T11:15:00.499Z,54.70
2019-01-02T11:17:58.188Z,54.90
2019-01-02T11:20:35.512Z,55.10
2019-01-02T11:23:38.604Z,54.80
2019-01-02T11:26:27.084Z,55.10
2019-01-02T11:29:07.373Z,55.20
2019-01-02T11:31:58.560Z,55.20
2019-01-02T11:34:39.277Z,55.20
2019-01-02T11:37:19.640Z,54.60
2019-01-02T11:40:18.559Z,54.50
2019-01-02T11:42:53.186Z,54.30
2019-01-02T11:45:21.655Z,54.20
2019-01-02T11:47:50.383Z,53.90
2019-01-02T11:50:18.863Z,54.00
2019-01-02T11:52:47.290Z,53.80
2019-01-02T11:55:15.848Z,53.50
2019-01-02T11:57:44.387Z,53.80
2019-01-02T12:00:14.275Z,53.60
2019-01-02T12:02:42.713Z,52.90
2019-01-02T12:05:11.319Z,53.00
2019-01-02T12:07:39.764Z,52.70
2019-01-02T12:10:10.962Z,52.70
2019-01-02T12:12:39.407Z,52.10
2019-01-02T12:15:09.942Z,52.90
2019-01-02T12:17:38.386Z,52.40
2019-01-02T12:20:09.585Z,52.00
2019-01-02T12:22:38.028Z,51.60
2019-01-02T12:25:06.943Z,51.50
2019-01-02T12:27:35.383Z,51.50
2019-01-02T12:30:05.998Z,51.00
2019-01-02T12:32:34.442Z,51.20
2019-01-02T12:35:02.894Z,51.10
2019-01-02T12:37:31.344Z,50.60
2019-01-02T12:39:59.851Z,51.10
2019-01-02T12:42:28.278Z,50.80
2019-01-02T12:44:56.906Z,51.10
2019-01-02T12:47:25.420Z,50.70
2019-01-02T12:49:53.880Z,50.50
2019-01-02T12:52:22.306Z,49.00
2019-01-02T12:54:50.827Z,48.90
2019-01-02T12:57:19.335Z,49.10
2019-01-02T12:59:47.844Z,48.90
2019-01-02T13:02:34.600Z,49.20
2019-01-02T13:05:22.753Z,49.20
2019-01-02T13:08:15.165Z,49.60
2019-01-02T13:10:46.803Z,49.80
2019-01-02T13:13:36.293Z,49.70
2019-01-02T13:16:10.645Z,49.30
2019-01-02T13:19:07.529Z,49.70
2019-01-02T13:21:46.521Z,49.50
2019-01-02T13:24:29.298Z,48.80
2019-01-02T13:27:03.442Z,49.30
2019-01-02T13:29:43.339Z,48.50
2019-01-02T13:32:17.815Z,49.00
2019-01-02T13:34:58.120Z,48.40
2019-01-02T13:37:38.738Z,48.40
2019-01-02T13:40:22.157Z,46.80
2019-01-02T13:43:13.397Z,46.90
2019-01-02T13:45:44.959Z,46.10
2019-01-02T13:48:28.646Z,45.50
2019-01-02T13:51:00.791Z,45.30
2019-01-02T13:53:29.313Z,46.10
2019-01-02T13:55:57.807Z,45.60
2019-01-02T13:58:26.231Z,45.50
2019-01-02T14:00:54.748Z,45.20
2019-01-02T14:03:23.207Z,45.40
2019-01-02T14:05:51.645Z,45.30
2019-01-02T14:08:20.114Z,44.90
2019-01-02T14:10:48.606Z,44.70
2019-01-02T14:13:17.157Z,45.00
2019-01-02T14:15:45.739Z,44.40
2019-01-02T14:18:14.195Z,44.40
2019-01-02T14:20:42.620Z,44.50
2019-01-02T14:23:11.069Z,44.50
2019-01-02T14:25:39.511Z,44.90
2019-01-02T14:28:07.946Z,44.20
2019-01-02T14:30:36.449Z,44.20
2019-01-02T14:33:04.899Z,44.60
2019-01-02T14:35:33.701Z,44.50
2019-01-02T14:38:02.150Z,44.40
2019-01-02T14:40:30.660Z,44.40
2019-01-02T14:42:59.139Z,44.70
2019-01-02T14:45:27.573Z,44.60
2019-01-02T14:47:56.114Z,44.20
2019-01-02T14:50:24.613Z,44.50
2019-01-02T14:52:53.466Z,44.10
2019-01-02T14:55:21.911Z,44.40
2019-01-02T14:57:50.408Z,44.00
2019-01-02T15:00:19.286Z,43.90
2019-01-02T15:02:47.754Z,43.70
2019-01-02T15:05:17.080Z,43.30
2019-01-02T15:07:45.549Z,43.30
2019-01-02T15:10:14.071Z,43.30
2019-01-02T15:12:42.621Z,43.10
2019-01-02T15:15:11.201Z,42.90
2019-01-02T15:17:39.697Z,43.90
2019-01-02T15:20:09.595Z,43.60
2019-01-02T15:22:38.041Z,43.40
2019-01-02T15:25:07.845Z,43.70
2019-01-02T15:27:36.353Z,43.70
2019-01-02T15:30:07.743Z,43.70
2019-01-02T15:32:36.182Z,44.10
2019-01-02T15:35:06.248Z,44.20
2019-01-02T15:37:34.731Z,43.80
2019-01-02T15:40:03.793Z,44.00
2019-01-02T15:42:32.257Z,44.40
2019-01-02T15:45:00.786Z,44.30
2019-01-02T15:47:29.227Z,44.00
2019-01-02T15:49:57.985Z,44.20
2019-01-02T15:52:26.435Z,44.40
2019-01-02T15:54:54.854Z,44.00
2019-01-02T15:57:23.303Z,44.40
2019-01-02T15:59:51.733Z,44.00
2019-01-02T16:02:20.555Z,44.50
2019-01-02T16:04:49.050Z,44.70
2019-01-02T16:07:17.526Z,44.40
2019-01-02T16:09:45.958Z,44.30
2019-01-02T16:12:14.475Z,44.30
2019-01-02T16:14:42.913Z,44.60
2019-01-02T16:17:11.369Z,44.70
2019-01-02T16:19:40.112Z,44.80
2019-01-02T16:22:08.575Z,44.30
2019-01-02T16:24:37.002Z,44.40
2019-01-02T16:27:05.527Z,44.60
2019-01-02T16:29:33.968Z,44.80
2019-01-02T16:32:21.780Z,44.60
2019-01-02T16:34:50.282Z,43.80
2019-01-02T16:37:18.782Z,44.30
2019-01-02T16:39:47.211Z,44.50
2019-01-02T16:42:15.647Z,44.80
2019-01-02T16:44:44.156Z,44.70
2019-01-02T16:47:12.607Z,44.50
2019-01-02T16:49:41.134Z,44.90
2019-01-02T16:52:09.579Z,45.00
2019-01-02T16:54:38.090Z,45.00
2019-01-02T16:57:06.709Z,45.40
2019-01-02T16:59:35.138Z,44.50
2019-01-02T17:02:03.759Z,44.40
2019-01-02T17:04:32.190Z,44.30
2019-01-02T17:07:00.623Z,44.90
2019-01-02T17:09:29.086Z,44.90
2019-01-02T17:11:57.528Z,44.50
2019-01-02T17:14:25.971Z,44.90
2019-01-02T17:16:54.700Z,44.50
2019-01-02T17:19:23.274Z,44.50
2019-01-02T17:21:51.719Z,45.20
2019-01-02T17:24:20.240Z,45.10
2019-01-02T17:26:48.678Z,44.90
2019-01-02T17:29:17.432Z,44.30
2019-01-02T17:31:45.850Z,44.70
2019-01-02T17:34:14.295Z,44.70
2019-01-02T17:36:42.732Z,44.90
2019-01-02T17:39:11.171Z,44.60
2019-01-02T17:41:39.598Z,44.80
2019-01-02T17:44:08.058Z,44.60
2019-01-02T17:46:36.491Z,44.80
2019-01-02T17:49:05.285Z,44.40
2019-01-02T17:51:33.730Z,44.70
2019-01-02T17:54:02.259Z,44.80
2019-01-02T17:56:30.709Z,45.50
2019-01-02T17:58:59.311Z,45.50
2019-01-02T18:01:27.754Z,45.70
2019-01-02T18:03:56.215Z,45.40
2019-01-02T18:06:26.284Z,45.90
2019-01-02T18:08:54.734Z,45.60
2019-01-02T18:11:23.237Z,45.50
2019-01-02T18:13:51.684Z,45.70
2019-01-02T18:16:20.203Z,45.70
2019-01-02T18:18:48.675Z,45.80
2019-01-02T18:21:17.219Z,45.60
2019-01-02T18:23:45.949Z,45.40
2019-01-02T18:26:14.383Z,45.40
2019-01-02T18:28:42.831Z,46.20
2019-01-02T18:31:11.278Z,45.80
2019-01-02T18:33:39.750Z,46.00
2019-01-02T18:36:08.272Z,46.00
2019-01-02T18:38:37.019Z,46.30
2019-01-02T18:41:05.733Z,46.00
2019-01-02T18:43:34.156Z,45.90
2019-01-02T18:46:02.687Z,46.40
2019-01-02T18:48:31.129Z,46.50
2019-01-02T18:50:59.588Z,46.60
2019-01-02T18:53:28.326Z,46.80
2019-01-02T18:55:57.137Z,46.60
2019-01-02T18:58:25.654Z,46.60
2019-01-02T19:00:54.099Z,46.90
2019-01-02T19:03:22.534Z,46.60
2019-01-02T19:05:51.001Z,46.30
2019-01-02T19:08:19.524Z,45.90
2019-01-02T19:10:48.314Z,46.30
2019-01-02T19:13:17.088Z,46.00
2019-01-02T19:15:45.534Z,46.30
2019-01-02T19:18:13.958Z,45.70
2019-01-02T19:20:42.529Z,46.30
2019-01-02T19:23:10.958Z,46.00
2019-01-02T19:25:39.496Z,45.50
2019-01-02T19:28:08.008Z,45.80
2019-01-02T19:30:36.450Z,45.90
2019-01-02T19:33:04.907Z,46.20
2019-01-02T19:35:33.352Z,46.80
2019-01-02T19:38:02.070Z,46.90
2019-01-02T19:40:30.596Z,46.40
2019-01-02T19:42:59.032Z,47.10
2019-01-02T19:45:27.648Z,46.70
2019-01-02T19:47:56.144Z,46.70
2019-01-02T19:50:24.697Z,46.60
2019-01-02T19:52:53.169Z,46.60
2019-01-02T19:55:21.689Z,46.50
2019-01-02T19:57:50.306Z,46.40
2019-01-02T20:00:18.932Z,46.10
2019-01-02T20:02:47.380Z,46.60
2019-01-02T20:05:16.198Z,46.50
2019-01-02T20:07:44.715Z,46.70
2019-01-02T20:10:13.213Z,46.90
2019-01-02T20:12:41.943Z,46.80
2019-01-02T20:15:10.738Z,46.70
2019-01-02T20:17:39.268Z,46.50
2019-01-02T20:20:09.936Z,47.00
2019-01-02T20:22:38.378Z,47.60
2019-01-02T20:25:07.278Z,47.50
2019-01-02T20:27:35.735Z,47.40
2019-01-02T20:30:07.009Z,46.90
2019-01-02T20:32:35.454Z,47.30
2019-01-02T20:35:04.046Z,47.70
2019-01-02T20:37:32.503Z,47.70
2019-01-02T20:40:01.000Z,47.50
2019-01-02T20:42:29.491Z,47.80
2019-01-02T20:44:58.023Z,47.70
2019-01-02T20:47:26.465Z,47.70
2019-01-02T20:49:55.103Z,47.60
2019-01-02T20:52:23.531Z,47.70
2019-01-02T20:54:52.296Z,47.10
2019-01-02T20:57:20.726Z,47.70
2019-01-02T20:59:49.208Z,47.30
2019-01-02T21:02:17.928Z,47.70
2019-01-02T21:04:46.376Z,48.00
2019-01-02T21:07:14.806Z,47.70
2019-01-02T21:09:43.263Z,47.70
2019-01-02T21:12:11.772Z,48.10
2019-01-02T21:14:40.309Z,48.30
2019-01-02T21:17:08.803Z,48.20
2019-01-02T21:19:56.626Z,47.80
2019-01-02T21:22:25.069Z,47.20
2019-01-02T21:24:53.651Z,47.80
2019-01-02T21:27:22.084Z,47.90
2019-01-02T21:29:50.565Z,47.80
2019-01-02T21:32:19.105Z,47.50
2019-01-02T21:34:47.782Z,47.60
2019-01-02T21:37:16.287Z,47.60
2019-01-02T21:39:46.173Z,47.90
2019-01-02T21:42:14.594Z,47.00
2019-01-02T21:44:43.153Z,48.10
2019-01-02T21:47:11.724Z,48.50
2019-01-02T21:49:40.174Z,48.70
2019-01-02T21:52:08.614Z,48.70
2019-01-02T21:54:37.134Z,49.00
2019-01-02T21:57:05.758Z,48.40
2019-01-02T21:59:34.232Z,47.90
2019-01-02T22:02:02.660Z,48.60
2019-01-02T22:04:31.652Z,48.30
2019-01-02T22:07:00.417Z,48.60
2019-01-02T22:09:29.664Z,48.70
2019-01-02T22:11:58.269Z,48.00
2019-01-02T22:14:26.966Z,49.10
2019-01-02T22:16:55.838Z,49.30
2019-01-02T22:19:29.123Z,49.00
2019-01-02T22:21:57.626Z,49.60
2019-01-02T22:24:30.743Z,49.70
2019-01-02T22:26:59.511Z,49.30
2019-01-02T22:29:34.172Z,49.90
2019-01-02T22:32:02.667Z,49.40
2019-01-02T22:34:31.322Z,49.70
2019-01-02T22:37:02.979Z,49.30
2019-01-02T22:39:31.624Z,49.10
2019-01-02T22:42:00.204Z,49.60
2019-01-02T22:44:30.447Z,49.40
2019-01-02T22:46:59.203Z,49.50
2019-01-02T22:49:27.980Z,49.70
2019-01-02T22:51:56.909Z,50.00
2019-01-02T22:54:25.403Z,50.30
2019-01-02T22:56:53.944Z,49.70
2019-01-02T22:59:22.812Z,49.70
2019-01-02T23:01:52.976Z,49.70
2019-01-02T23:04:29.222Z,49.60
2019-01-02T23:07:15.554Z,50.20
2019-01-02T23:09:45.709Z,49.90
2019-01-02T23:12:16.105Z,50.40
2019-01-02T23:14:48.933Z,49.80
2019-01-02T23:17:34.365Z,49.90
2019-01-02T23:20:20.362Z,50.40
2019-01-02T23:22:50.701Z,50.60
2019-01-02T23:25:35.042Z,50.30
2019-01-02T23:28:07.995Z,50.60
2019-01-02T23:30:42.460Z,50.10
2019-01-02T23:33:28.568Z,50.40
2019-01-02T23:35:58.654Z,50.80
2019-01-02T23:38:33.471Z,50.70
2019-01-02T23:41:03.636Z,50.80
2019-01-02T23:43:42.969Z,51.00
2019-01-02T23:46:19.347Z,50.90
2019-01-02T23:49:07.619Z,50.90
2019-01-02T23:51:54.243Z,51.00
2019-01-02T23:54:39.729Z,51.10
2019-01-02T23:57:09.904Z,51.10
2019-01-02T23:59:56.672Z,50.90
